This is the latest recevied weather packets stored in our database for station/object N5SRF. If no packets are shown the sender has not sent any weather packets the latest 10 day(s).
| Time | Temp. | Humidity | Pressure | Rain* | Wind** | Luminosity | Snow |
|---|---|---|---|---|---|---|---|
| 1778011989 | 28.89° C | 79% | 1012 hPa | 0 mm | - | 322 W/m² | - |
| 1778011687 | 28.33° C | 78% | 1012.4 hPa | 0 mm | - | 465 W/m² | - |
| 1778011383 | 29.44° C | 77% | 1012.2 hPa | 0 mm | - | 159 W/m² | - |
| 1778011078 | 28.89° C | 79% | 1012.2 hPa | 0 mm | - | 305 W/m² | - |
| 1778010777 | 28.89° C | 78% | 1012.1 hPa | 0 mm | - | 541 W/m² | - |
| 1778010473 | 28.89° C | 78% | 1012.4 hPa | 0 mm | - | 332 W/m² | - |
| 1778010170 | 28.89° C | 78% | 1012.3 hPa | 0 mm | - | 296 W/m² | - |
| 1778009865 | 28.89° C | 80% | 1012.4 hPa | 0 mm | - | 394 W/m² | - |
| 1778009564 | 28.33° C | 81% | 1012.6 hPa | 0 mm | - | 442 W/m² | - |
| 1778009262 | 27.78° C | 81% | 1012.4 hPa | 0 mm | - | 372 W/m² | - |
| 1778008959 | 27.78° C | 82% | 1012.7 hPa | 0 mm | - | 394 W/m² | - |
| 1778008657 | 28.33° C | 82% | 1012.5 hPa | 0 mm | - | 234 W/m² | - |
| 1778008355 | 27.78° C | 82% | 1012.4 hPa | 0 mm | - | 311 W/m² | - |
| 1778008051 | 28.33° C | 81% | 1012.6 hPa | 0 mm | - | 263 W/m² | - |
| 1778007746 | 27.78° C | 82% | 1012.8 hPa | 0 mm | - | 417 W/m² | - |
| 1778007442 | 27.78° C | 83% | 1012.8 hPa | 0 mm | - | 258 W/m² | - |
| 1778007139 | 27.78° C | 84% | 1012.8 hPa | 0 mm | - | 264 W/m² | - |
| 1778006829 | 27.22° C | 84% | 1012.7 hPa | 0 mm | - | 299 W/m² | - |
| 1778006527 | 27.22° C | 82% | 1012.9 hPa | 0 mm | - | 202 W/m² | - |
| 1778006223 | 27.22° C | 83% | 1013 hPa | 0 mm | - | 272 W/m² | - |
| 1778005921 | 27.22° C | 82% | 1012.9 hPa | 0 mm | - | 249 W/m² | - |
| 1778005616 | 27.78° C | 82% | 1013 hPa | 0 mm | - | 365 W/m² | - |
| 1778005314 | 27.22° C | 83% | 1012.9 hPa | 0 mm | - | 394 W/m² | - |
| 1778005004 | 27.22° C | 84% | 1013.1 hPa | 0 mm | - | 302 W/m² | - |
| 1778004702 | 26.67° C | 84% | 1013.1 hPa | 0 mm | - | 251 W/m² | - |
* Rain latest hour (hover to see other rain measurements)
** Current wind speed in m/s (hover to see current wind gust speed)